sensor_id;sensor_type;location;lat;lon;timestamp;pressure;altitude;pressure_sealevel;temperature;humidity
57094;BME280;42970;50.996;3.706;2023-04-03T00:00:44;77009.94;;;-146.65;73.10
57094;BME280;42970;50.996;3.706;2023-04-03T00:03:09;77005.91;;;-146.65;72.82
57094;BME280;42970;50.996;3.706;2023-04-03T00:05:35;76991.78;;;-146.65;73.11
57094;BME280;42970;50.996;3.706;2023-04-03T00:08:00;76997.84;;;-146.65;73.84
57094;BME280;42970;50.996;3.706;2023-04-03T00:10:27;76991.78;;;-146.65;74.23
57094;BME280;42970;50.996;3.706;2023-04-03T00:12:52;76987.75;;;-146.65;74.30
57094;BME280;42970;50.996;3.706;2023-04-03T00:15:18;76981.69;;;-146.65;74.48
57094;BME280;42970;50.996;3.706;2023-04-03T00:17:43;76989.78;;;-146.65;75.02
57094;BME280;42970;50.996;3.706;2023-04-03T00:20:08;76983.72;;;-146.65;73.69
57094;BME280;42970;50.996;3.706;2023-04-03T00:22:34;76999.88;;;-146.65;73.54
57094;BME280;42970;50.996;3.706;2023-04-03T00:24:59;77014.00;;;-146.65;73.67
57094;BME280;42970;50.996;3.706;2023-04-03T00:27:25;77022.06;;;-146.65;73.52
57094;BME280;42970;50.996;3.706;2023-04-03T00:29:50;77038.19;;;-146.65;74.30
57094;BME280;42970;50.996;3.706;2023-04-03T00:32:15;77032.16;;;-146.65;75.04
57094;BME280;42970;50.996;3.706;2023-04-03T00:34:41;76997.84;;;-146.65;75.30
57094;BME280;42970;50.996;3.706;2023-04-03T00:37:06;76995.81;;;-146.65;74.79
57094;BME280;42970;50.996;3.706;2023-04-03T00:39:31;76993.81;;;-146.65;74.87
57094;BME280;42970;50.996;3.706;2023-04-03T00:41:57;77001.88;;;-146.65;74.29
57094;BME280;42970;50.996;3.706;2023-04-03T00:45:22;77001.88;;;-146.65;74.07
57094;BME280;42970;50.996;3.706;2023-04-03T00:47:10;76993.81;;;-146.65;73.75
57094;BME280;42970;50.996;3.706;2023-04-03T00:49:36;76995.81;;;-146.65;73.27
57094;BME280;42970;50.996;3.706;2023-04-03T00:52:02;77003.91;;;-146.65;73.51
57094;BME280;42970;50.996;3.706;2023-04-03T00:54:27;77009.94;;;-146.65;72.98
57094;BME280;42970;50.996;3.706;2023-04-03T00:56:53;77005.91;;;-146.65;72.85
57094;BME280;42970;50.996;3.706;2023-04-03T00:59:24;77026.09;;;-146.65;73.31
57094;BME280;42970;50.996;3.706;2023-04-03T01:01:52;77032.16;;;-146.65;73.18
57094;BME280;42970;50.996;3.706;2023-04-03T01:04:31;77030.13;;;-146.65;74.44
57094;BME280;42970;50.996;3.706;2023-04-03T01:06:58;77036.19;;;-146.65;74.61
57094;BME280;42970;50.996;3.706;2023-04-03T01:09:25;77011.97;;;-146.65;74.71
57094;BME280;42970;50.996;3.706;2023-04-03T01:11:51;77011.97;;;-146.65;74.86
57094;BME280;42970;50.996;3.706;2023-04-03T01:14:16;76987.75;;;-146.65;74.25
57094;BME280;42970;50.996;3.706;2023-04-03T01:16:41;76977.66;;;-146.65;73.40
57094;BME280;42970;50.996;3.706;2023-04-03T01:19:07;77001.88;;;-146.65;73.37
57094;BME280;42970;50.996;3.706;2023-04-03T01:24:15;76979.69;;;-146.65;72.92
57094;BME280;42970;50.996;3.706;2023-04-03T01:26:45;76953.47;;;-146.65;72.79
57094;BME280;42970;50.996;3.706;2023-04-03T01:29:10;76939.34;;;-146.65;72.28
57094;BME280;42970;50.996;3.706;2023-04-03T01:31:49;76929.25;;;-146.65;72.34
57094;BME280;42970;50.996;3.706;2023-04-03T01:34:15;76933.28;;;-146.65;72.13
57094;BME280;42970;50.996;3.706;2023-04-03T01:36:40;76937.31;;;-146.65;72.38
57094;BME280;42970;50.996;3.706;2023-04-03T01:39:06;76945.38;;;-146.65;72.24
57094;BME280;42970;50.996;3.706;2023-04-03T01:41:31;76929.25;;;-146.65;73.05
57094;BME280;42970;50.996;3.706;2023-04-03T01:43:57;76925.22;;;-146.65;72.28
57094;BME280;42970;50.996;3.706;2023-04-03T01:46:22;76915.13;;;-146.65;72.23
57094;BME280;42970;50.996;3.706;2023-04-03T01:48:47;76898.97;;;-146.65;71.90
57094;BME280;42970;50.996;3.706;2023-04-03T01:51:13;76919.16;;;-146.65;72.67
57094;BME280;42970;50.996;3.706;2023-04-03T01:53:38;76901.00;;;-146.65;73.43
57094;BME280;42970;50.996;3.706;2023-04-03T01:56:04;76876.78;;;-146.65;72.79
57094;BME280;42970;50.996;3.706;2023-04-03T01:58:29;76844.50;;;-146.65;71.77
57094;BME280;42970;50.996;3.706;2023-04-03T02:00:55;76820.28;;;-146.65;70.66
57094;BME280;42970;50.996;3.706;2023-04-03T02:03:20;76824.31;;;-146.65;69.78
57094;BME280;42970;50.996;3.706;2023-04-03T02:05:46;76816.25;;;-146.65;69.74
57094;BME280;42970;50.996;3.706;2023-04-03T02:08:12;76804.16;;;-146.65;69.31
57094;BME280;42970;50.996;3.706;2023-04-03T02:10:38;76812.22;;;-146.65;69.14
57094;BME280;42970;50.996;3.706;2023-04-03T02:13:03;76802.13;;;-146.65;69.09
57094;BME280;42970;50.996;3.706;2023-04-03T02:15:29;76808.19;;;-146.65;69.00
57094;BME280;42970;50.996;3.706;2023-04-03T02:17:54;76830.38;;;-146.65;69.37
57094;BME280;42970;50.996;3.706;2023-04-03T02:20:20;76822.31;;;-146.65;69.46
57094;BME280;42970;50.996;3.706;2023-04-03T02:22:45;76834.41;;;-146.65;69.72
57094;BME280;42970;50.996;3.706;2023-04-03T02:25:11;76844.50;;;-146.65;69.51
57094;BME280;42970;50.996;3.706;2023-04-03T02:27:37;76836.44;;;-146.65;69.41
57094;BME280;42970;50.996;3.706;2023-04-03T02:30:03;76832.38;;;-146.65;69.02
57094;BME280;42970;50.996;3.706;2023-04-03T02:32:28;76840.47;;;-146.65;69.05
57094;BME280;42970;50.996;3.706;2023-04-03T02:34:54;76840.47;;;-146.65;69.01
57094;BME280;42970;50.996;3.706;2023-04-03T02:37:19;76856.59;;;-146.65;69.27
57094;BME280;42970;50.996;3.706;2023-04-03T02:39:45;76838.44;;;-146.65;69.99
57094;BME280;42970;50.996;3.706;2023-04-03T02:42:11;76832.38;;;-146.65;69.62
57094;BME280;42970;50.996;3.706;2023-04-03T02:44:36;76832.38;;;-146.65;69.70
57094;BME280;42970;50.996;3.706;2023-04-03T02:47:02;76816.25;;;-146.65;68.87
57094;BME280;42970;50.996;3.706;2023-04-03T02:49:27;76846.50;;;-146.65;69.08
57094;BME280;42970;50.996;3.706;2023-04-03T02:51:53;76852.56;;;-146.65;69.88
57094;BME280;42970;50.996;3.706;2023-04-03T02:54:18;76818.28;;;-146.65;68.77
57094;BME280;42970;50.996;3.706;2023-04-03T02:56:44;76826.34;;;-146.65;69.16
57094;BME280;42970;50.996;3.706;2023-04-03T02:59:09;76836.44;;;-146.65;68.85
57094;BME280;42970;50.996;3.706;2023-04-03T03:01:34;76856.59;;;-146.65;69.55
57094;BME280;42970;50.996;3.706;2023-04-03T03:04:01;76830.38;;;-146.65;69.27
57094;BME280;42970;50.996;3.706;2023-04-03T03:06:27;76836.44;;;-146.65;69.44
57094;BME280;42970;50.996;3.706;2023-04-03T03:08:52;76846.50;;;-146.65;69.32
57094;BME280;42970;50.996;3.706;2023-04-03T03:11:18;76876.78;;;-146.65;70.09
57094;BME280;42970;50.996;3.706;2023-04-03T03:13:43;76872.75;;;-146.65;70.54
57094;BME280;42970;50.996;3.706;2023-04-03T03:16:09;76856.59;;;-146.65;69.21
57094;BME280;42970;50.996;3.706;2023-04-03T03:18:34;76834.41;;;-146.65;68.78
57094;BME280;42970;50.996;3.706;2023-04-03T03:21:01;76848.53;;;-146.65;69.14
57094;BME280;42970;50.996;3.706;2023-04-03T03:23:27;76864.69;;;-146.65;69.48
57094;BME280;42970;50.996;3.706;2023-04-03T03:25:58;76848.53;;;-146.65;69.69
57094;BME280;42970;50.996;3.706;2023-04-03T03:28:24;76850.56;;;-146.65;69.52
57094;BME280;42970;50.996;3.706;2023-04-03T03:30:50;76876.78;;;-146.65;69.96
57094;BME280;42970;50.996;3.706;2023-04-03T03:33:16;76862.66;;;-146.65;69.75
57094;BME280;42970;50.996;3.706;2023-04-03T03:35:42;76876.78;;;-146.65;70.26
57094;BME280;42970;50.996;3.706;2023-04-03T03:38:08;76828.34;;;-146.65;68.81
57094;BME280;42970;50.996;3.706;2023-04-03T03:40:36;76880.81;;;-146.65;69.92
57094;BME280;42970;50.996;3.706;2023-04-03T03:43:01;76852.56;;;-146.65;68.92
57094;BME280;42970;50.996;3.706;2023-04-03T03:45:26;76856.59;;;-146.65;69.15
57094;BME280;42970;50.996;3.706;2023-04-03T03:47:52;76874.75;;;-146.65;69.27
57094;BME280;42970;50.996;3.706;2023-04-03T03:50:17;76868.72;;;-146.65;69.31
57094;BME280;42970;50.996;3.706;2023-04-03T03:52:43;76838.44;;;-146.65;68.72
57094;BME280;42970;50.996;3.706;2023-04-03T03:55:08;76842.47;;;-146.65;68.18
57094;BME280;42970;50.996;3.706;2023-04-03T03:57:33;76884.84;;;-146.65;68.57
57094;BME280;42970;50.996;3.706;2023-04-03T03:59:59;76836.44;;;-146.65;68.01
57094;BME280;42970;50.996;3.706;2023-04-03T04:02:24;76860.63;;;-146.65;68.38
57094;BME280;42970;50.996;3.706;2023-04-03T04:04:50;76856.59;;;-146.65;68.21
57094;BME280;42970;50.996;3.706;2023-04-03T04:07:15;76876.78;;;-146.65;68.82
57094;BME280;42970;50.996;3.706;2023-04-03T04:09:41;76868.72;;;-146.65;68.30
57094;BME280;42970;50.996;3.706;2023-04-03T04:12:06;76896.97;;;-146.65;68.99
57094;BME280;42970;50.996;3.706;2023-04-03T04:14:31;76868.72;;;-146.65;68.65
57094;BME280;42970;50.996;3.706;2023-04-03T04:16:57;76890.91;;;-146.65;68.82
57094;BME280;42970;50.996;3.706;2023-04-03T04:19:22;76882.84;;;-146.65;68.13
57094;BME280;42970;50.996;3.706;2023-04-03T04:21:47;76880.81;;;-146.65;68.15
57094;BME280;42970;50.996;3.706;2023-04-03T04:24:13;76872.75;;;-146.65;68.75
57094;BME280;42970;50.996;3.706;2023-04-03T04:26:38;76864.69;;;-146.65;67.94
57094;BME280;42970;50.996;3.706;2023-04-03T04:29:04;76868.72;;;-146.65;68.08
57094;BME280;42970;50.996;3.706;2023-04-03T04:31:36;76901.00;;;-146.65;68.80
57094;BME280;42970;50.996;3.706;2023-04-03T04:34:02;76876.78;;;-146.65;68.23
57094;BME280;42970;50.996;3.706;2023-04-03T04:36:27;76874.75;;;-146.65;68.47
57094;BME280;42970;50.996;3.706;2023-04-03T04:38:53;76901.00;;;-146.65;68.66
57094;BME280;42970;50.996;3.706;2023-04-03T04:41:21;76933.28;;;-146.65;69.77
57094;BME280;42970;50.996;3.706;2023-04-03T04:43:48;76933.28;;;-146.65;69.97
57094;BME280;42970;50.996;3.706;2023-04-03T04:46:13;76913.09;;;-146.65;70.26
57094;BME280;42970;50.996;3.706;2023-04-03T04:48:39;76913.09;;;-146.65;69.99
57094;BME280;42970;50.996;3.706;2023-04-03T04:51:05;76917.13;;;-146.65;70.18
57094;BME280;42970;50.996;3.706;2023-04-03T04:53:31;76898.97;;;-146.65;69.69
57094;BME280;42970;50.996;3.706;2023-04-03T04:55:56;76901.00;;;-146.65;69.47
57094;BME280;42970;50.996;3.706;2023-04-03T04:58:22;76915.13;;;-146.65;69.22
57094;BME280;42970;50.996;3.706;2023-04-03T05:00:47;76892.91;;;-146.65;69.41
57094;BME280;42970;50.996;3.706;2023-04-03T05:03:13;76894.94;;;-146.65;68.89
57094;BME280;42970;50.996;3.706;2023-04-03T05:05:38;76868.72;;;-146.65;67.89
57094;BME280;42970;50.996;3.706;2023-04-03T05:08:03;76878.78;;;-146.65;68.20
57094;BME280;42970;50.996;3.706;2023-04-03T05:10:29;76919.16;;;-146.65;69.23
57094;BME280;42970;50.996;3.706;2023-04-03T05:12:54;76888.88;;;-146.65;68.23
57094;BME280;42970;50.996;3.706;2023-04-03T05:15:20;76917.13;;;-146.65;69.31
57094;BME280;42970;50.996;3.706;2023-04-03T05:17:45;76921.16;;;-146.65;69.62
57094;BME280;42970;50.996;3.706;2023-04-03T05:20:11;76890.91;;;-146.65;68.25
57094;BME280;42970;50.996;3.706;2023-04-03T05:22:36;76907.03;;;-146.65;68.87
57094;BME280;42970;50.996;3.706;2023-04-03T05:25:02;76892.91;;;-146.65;68.57
57094;BME280;42970;50.996;3.706;2023-04-03T05:27:27;76894.94;;;-146.65;68.01
57094;BME280;42970;50.996;3.706;2023-04-03T05:29:55;76909.06;;;-146.65;68.94
57094;BME280;42970;50.996;3.706;2023-04-03T05:32:24;76907.03;;;-146.65;68.94
57094;BME280;42970;50.996;3.706;2023-04-03T05:34:51;76921.16;;;-146.65;70.18
57094;BME280;42970;50.996;3.706;2023-04-03T05:37:16;76937.31;;;-146.65;70.31
57094;BME280;42970;50.996;3.706;2023-04-03T05:39:42;76941.34;;;-146.65;70.75
57094;BME280;42970;50.996;3.706;2023-04-03T05:42:07;76888.88;;;-146.65;69.26
57094;BME280;42970;50.996;3.706;2023-04-03T05:44:33;76907.03;;;-146.65;69.44
57094;BME280;42970;50.996;3.706;2023-04-03T05:46:59;76894.94;;;-146.65;68.69
57094;BME280;42970;50.996;3.706;2023-04-03T05:49:24;76872.75;;;-146.65;68.25
57094;BME280;42970;50.996;3.706;2023-04-03T05:51:50;76892.91;;;-146.65;69.18
57094;BME280;42970;50.996;3.706;2023-04-03T05:54:27;76856.59;;;-146.65;68.72
57094;BME280;42970;50.996;3.706;2023-04-03T05:56:53;76824.31;;;-146.65;67.33
57094;BME280;42970;50.996;3.706;2023-04-03T05:59:19;76824.31;;;-146.65;66.84
57094;BME280;42970;50.996;3.706;2023-04-03T06:01:45;76838.44;;;-146.65;67.64
57094;BME280;42970;50.996;3.706;2023-04-03T06:04:10;76854.59;;;-146.65;68.10
57094;BME280;42970;50.996;3.706;2023-04-03T06:06:43;76860.63;;;-146.65;68.33
57094;BME280;42970;50.996;3.706;2023-04-03T06:09:09;76820.28;;;-146.65;67.71
57094;BME280;42970;50.996;3.706;2023-04-03T06:11:34;76804.16;;;-146.65;66.63
57094;BME280;42970;50.996;3.706;2023-04-03T06:14:00;76820.28;;;-146.65;66.92
57094;BME280;42970;50.996;3.706;2023-04-03T06:16:25;76779.94;;;-146.65;66.26
57094;BME280;42970;50.996;3.706;2023-04-03T06:18:51;76777.91;;;-146.65;66.04
57094;BME280;42970;50.996;3.706;2023-04-03T06:21:16;76790.03;;;-146.65;65.60
57094;BME280;42970;50.996;3.706;2023-04-03T06:23:41;76739.56;;;-146.65;65.42
57094;BME280;42970;50.996;3.706;2023-04-03T06:26:06;76747.66;;;-146.65;65.19
57094;BME280;42970;50.996;3.706;2023-04-03T06:28:32;76733.53;;;-146.65;65.54
57094;BME280;42970;50.996;3.706;2023-04-03T06:30:57;76745.63;;;-146.65;65.14
57094;BME280;42970;50.996;3.706;2023-04-03T06:33:22;76711.34;;;-146.65;64.99
57094;BME280;42970;50.996;3.706;2023-04-03T06:35:48;76737.56;;;-146.65;65.21
57094;BME280;42970;50.996;3.706;2023-04-03T06:38:13;76695.19;;;-146.65;64.75
57094;BME280;42970;50.996;3.706;2023-04-03T06:40:39;76689.13;;;-146.65;64.14
57094;BME280;42970;50.996;3.706;2023-04-03T06:43:04;76701.25;;;-146.65;63.80
57094;BME280;42970;50.996;3.706;2023-04-03T06:45:30;76683.09;;;-146.65;63.30
57094;BME280;42970;50.996;3.706;2023-04-03T06:47:55;76695.19;;;-146.65;62.95
57094;BME280;42970;50.996;3.706;2023-04-03T06:50:20;76685.09;;;-146.65;63.13
57094;BME280;42970;50.996;3.706;2023-04-03T06:52:46;76687.13;;;-146.65;62.68
57094;BME280;42970;50.996;3.706;2023-04-03T06:55:11;76648.78;;;-146.65;62.38
57094;BME280;42970;50.996;3.706;2023-04-03T06:57:37;76636.69;;;-146.65;61.68
57094;BME280;42970;50.996;3.706;2023-04-03T07:00:03;76594.31;;;-146.65;60.80
57094;BME280;42970;50.996;3.706;2023-04-03T07:02:29;76687.13;;;-146.65;60.79
57094;BME280;42970;50.996;3.706;2023-04-03T07:04:54;76624.56;;;-146.65;60.54
57094;BME280;42970;50.996;3.706;2023-04-03T07:07:20;76584.22;;;-146.65;60.60
57094;BME280;42970;50.996;3.706;2023-04-03T07:09:45;76562.03;;;-146.65;59.58
57094;BME280;42970;50.996;3.706;2023-04-03T07:12:13;76547.91;;;-146.65;58.90
57094;BME280;42970;50.996;3.706;2023-04-03T07:14:39;76558.00;;;-146.65;58.88
57094;BME280;42970;50.996;3.706;2023-04-03T07:17:04;76515.63;;;-146.65;57.50
57094;BME280;42970;50.996;3.706;2023-04-03T07:19:29;76590.28;;;-146.65;58.64
57094;BME280;42970;50.996;3.706;2023-04-03T07:21:55;76521.69;;;-146.65;57.90
57094;BME280;42970;50.996;3.706;2023-04-03T07:24:20;76511.59;;;-146.65;57.00
57094;BME280;42970;50.996;3.706;2023-04-03T07:26:49;76529.75;;;-146.65;56.72
57094;BME280;42970;50.996;3.706;2023-04-03T07:29:14;76558.00;;;-146.65;56.35
57094;BME280;42970;50.996;3.706;2023-04-03T07:31:39;76549.91;;;-146.65;58.25
57094;BME280;42970;50.996;3.706;2023-04-03T07:34:06;76529.75;;;-146.65;56.83
57094;BME280;42970;50.996;3.706;2023-04-03T07:36:31;76501.50;;;-146.65;57.40
57094;BME280;42970;50.996;3.706;2023-04-03T07:38:58;76489.41;;;-146.65;57.15
57094;BME280;42970;50.996;3.706;2023-04-03T07:41:24;76505.53;;;-146.65;56.47
57094;BME280;42970;50.996;3.706;2023-04-03T07:43:49;76525.72;;;-146.65;55.20
57094;BME280;42970;50.996;3.706;2023-04-03T07:46:15;76473.25;;;-146.65;55.21
57094;BME280;42970;50.996;3.706;2023-04-03T07:48:40;76497.47;;;-146.65;54.42
57094;BME280;42970;50.996;3.706;2023-04-03T07:51:05;76451.06;;;-146.65;53.22
57094;BME280;42970;50.996;3.706;2023-04-03T07:53:31;76479.31;;;-146.65;53.81
57094;BME280;42970;50.996;3.706;2023-04-03T07:55:58;76432.91;;;-146.65;52.55
57094;BME280;42970;50.996;3.706;2023-04-03T07:58:23;76402.66;;;-146.65;51.32
57094;BME280;42970;50.996;3.706;2023-04-03T08:00:49;76473.25;;;-146.65;52.54
57094;BME280;42970;50.996;3.706;2023-04-03T08:03:15;76440.97;;;-146.65;52.57
57094;BME280;42970;50.996;3.706;2023-04-03T08:05:44;76451.06;;;-146.65;52.57
57094;BME280;42970;50.996;3.706;2023-04-03T08:08:11;76414.75;;;-146.65;52.57
57094;BME280;42970;50.996;3.706;2023-04-03T08:10:37;76463.16;;;-146.65;52.76
57094;BME280;42970;50.996;3.706;2023-04-03T08:13:02;76424.84;;;-146.65;52.52
57094;BME280;42970;50.996;3.706;2023-04-03T08:15:29;76382.47;;;-146.65;51.38
57094;BME280;42970;50.996;3.706;2023-04-03T08:17:54;76356.25;;;-146.65;51.37
57094;BME280;42970;50.996;3.706;2023-04-03T08:20:20;76319.94;;;-146.65;50.38
57094;BME280;42970;50.996;3.706;2023-04-03T08:22:45;76334.06;;;-146.65;51.64
57094;BME280;42970;50.996;3.706;2023-04-03T08:25:11;76340.09;;;-146.65;51.55
57094;BME280;42970;50.996;3.706;2023-04-03T08:27:36;76279.59;;;-146.65;50.91
57094;BME280;42970;50.996;3.706;2023-04-03T08:30:02;76358.25;;;-146.65;50.44
57094;BME280;42970;50.996;3.706;2023-04-03T08:32:29;76380.44;;;-146.65;51.36
57094;BME280;42970;50.996;3.706;2023-04-03T08:34:54;76370.38;;;-146.65;51.31
57094;BME280;42970;50.996;3.706;2023-04-03T08:37:19;76396.59;;;-146.65;50.81
57094;BME280;42970;50.996;3.706;2023-04-03T08:39:45;76378.44;;;-146.65;50.65
57094;BME280;42970;50.996;3.706;2023-04-03T08:42:14;76370.38;;;-146.65;50.17
57094;BME280;42970;50.996;3.706;2023-04-03T08:44:53;76340.09;;;-146.65;49.35
57094;BME280;42970;50.996;3.706;2023-04-03T08:47:23;76311.84;;;-146.65;49.58
57094;BME280;42970;50.996;3.706;2023-04-03T08:49:53;76303.78;;;-146.65;48.98
57094;BME280;42970;50.996;3.706;2023-04-03T08:52:24;76289.66;;;-146.65;49.61
57094;BME280;42970;50.996;3.706;2023-04-03T08:54:53;76346.16;;;-146.65;49.96
57094;BME280;42970;50.996;3.706;2023-04-03T08:57:41;76267.47;;;-146.65;49.27
57094;BME280;42970;50.996;3.706;2023-04-03T09:00:06;76291.69;;;-146.65;49.00
57094;BME280;42970;50.996;3.706;2023-04-03T09:05:14;76319.94;;;-146.65;47.70
57094;BME280;42970;50.996;3.706;2023-04-03T09:07:44;76225.13;;;-146.65;46.54
57094;BME280;42970;50.996;3.706;2023-04-03T09:10:12;76223.09;;;-146.65;45.25
57094;BME280;42970;50.996;3.706;2023-04-03T09:12:38;76182.75;;;-146.65;45.41
57094;BME280;42970;50.996;3.706;2023-04-03T09:15:10;76174.69;;;-146.65;44.33
57094;BME280;42970;50.996;3.706;2023-04-03T09:17:48;76190.81;;;-146.65;43.88
57094;BME280;42970;50.996;3.706;2023-04-03T09:22:42;76263.44;;;-146.65;43.04
57094;BME280;42970;50.996;3.706;2023-04-03T09:25:15;76293.69;;;-146.65;43.20
57094;BME280;42970;50.996;3.706;2023-04-03T09:27:41;76194.84;;;-146.65;42.34
57094;BME280;42970;50.996;3.706;2023-04-03T09:30:17;76251.34;;;-146.65;42.44
57094;BME280;42970;50.996;3.706;2023-04-03T09:32:46;76243.28;;;-146.65;43.12
57094;BME280;42970;50.996;3.706;2023-04-03T09:37:41;76168.63;;;-146.65;41.46
57094;BME280;42970;50.996;3.706;2023-04-03T09:40:30;76237.22;;;-146.65;41.23
57094;BME280;42970;50.996;3.706;2023-04-03T09:42:54;76190.81;;;-146.65;41.68
57094;BME280;42970;50.996;3.706;2023-04-03T09:45:25;76235.19;;;-146.65;41.98
57094;BME280;42970;50.996;3.706;2023-04-03T09:48:04;76285.63;;;-146.65;41.74
57094;BME280;42970;50.996;3.706;2023-04-03T09:50:30;76170.66;;;-146.65;41.16
57094;BME280;42970;50.996;3.706;2023-04-03T09:52:56;76122.22;;;-146.65;40.97
57094;BME280;42970;50.996;3.706;2023-04-03T09:55:22;76093.97;;;-146.65;41.95
57094;BME280;42970;50.996;3.706;2023-04-03T09:57:52;76049.59;;;-146.65;39.65
57094;BME280;42970;50.996;3.706;2023-04-03T10:00:23;76089.94;;;-146.65;40.13
57094;BME280;42970;50.996;3.706;2023-04-03T10:02:51;76065.75;;;-146.65;39.42
57094;BME280;42970;50.996;3.706;2023-04-03T10:13:31;75912.44;;;-146.65;38.38
57094;BME280;42970;50.996;3.706;2023-04-03T10:20:57;75876.13;;;-146.65;36.96
57094;BME280;42970;50.996;3.706;2023-04-03T10:23:26;75956.81;;;-146.65;37.55
57094;BME280;42970;50.996;3.706;2023-04-03T10:28:46;75870.06;;;-146.65;37.23
57094;BME280;42970;50.996;3.706;2023-04-03T10:38:56;75874.09;;;-146.65;36.68
57094;BME280;42970;50.996;3.706;2023-04-03T10:43:55;75868.06;;;-146.65;35.60
57094;BME280;42970;50.996;3.706;2023-04-03T10:48:55;75730.88;;;-146.65;34.73
57094;BME280;42970;50.996;3.706;2023-04-03T10:56:34;75767.19;;;-146.65;35.10
57094;BME280;42970;50.996;3.706;2023-04-03T11:01:46;75613.88;;;-146.65;34.33
57094;BME280;42970;50.996;3.706;2023-04-03T11:04:13;75704.66;;;-146.65;34.12
57094;BME280;42970;50.996;3.706;2023-04-03T11:06:43;75684.50;;;-146.65;33.80
57094;BME280;42970;50.996;3.706;2023-04-03T11:09:19;75650.19;;;-146.65;33.74
57094;BME280;42970;50.996;3.706;2023-04-03T11:14:40;75656.25;;;-146.65;32.87
57094;BME280;42970;50.996;3.706;2023-04-03T11:19:39;75543.28;;;-146.65;32.34
57094;BME280;42970;50.996;3.706;2023-04-03T11:24:34;75712.72;;;-146.65;33.37
57094;BME280;42970;50.996;3.706;2023-04-03T11:27:01;75537.25;;;-146.65;32.83
57094;BME280;42970;50.996;3.706;2023-04-03T11:29:31;75448.50;;;-146.65;31.94
57094;BME280;42970;50.996;3.706;2023-04-03T11:32:09;75577.59;;;-146.65;32.74
57094;BME280;42970;50.996;3.706;2023-04-03T11:34:45;75549.34;;;-146.65;31.07
57094;BME280;42970;50.996;3.706;2023-04-03T11:39:54;75621.97;;;-146.65;31.58
57094;BME280;42970;50.996;3.706;2023-04-03T11:42:30;75646.16;;;-146.65;31.23
57094;BME280;42970;50.996;3.706;2023-04-03T11:47:51;75521.09;;;-146.65;29.37
57094;BME280;42970;50.996;3.706;2023-04-03T11:53:03;75305.28;;;-146.65;28.47
57094;BME280;42970;50.996;3.706;2023-04-03T12:01:00;75496.91;;;-146.65;28.34
57094;BME280;42970;50.996;3.706;2023-04-03T12:08:38;75343.59;;;-146.65;29.04
57094;BME280;42970;50.996;3.706;2023-04-03T12:13:33;75507.00;;;-146.65;29.46
57094;BME280;42970;50.996;3.706;2023-04-03T12:15:59;75515.06;;;-146.65;30.49
57094;BME280;42970;50.996;3.706;2023-04-03T12:20:58;75450.50;;;-146.65;29.29
57094;BME280;42970;50.996;3.706;2023-04-03T12:25:52;75428.31;;;-146.65;28.15
57094;BME280;42970;50.996;3.706;2023-04-03T12:28:24;75323.44;;;-146.65;27.68
57094;BME280;42970;50.996;3.706;2023-04-03T12:30:49;75246.78;;;-146.65;26.96
57094;BME280;42970;50.996;3.706;2023-04-03T12:36:23;75315.38;;;-146.65;28.23
57094;BME280;42970;50.996;3.706;2023-04-03T12:39:06;75420.25;;;-146.65;27.47
57094;BME280;42970;50.996;3.706;2023-04-03T12:41:48;75248.81;;;-146.65;26.59
57094;BME280;42970;50.996;3.706;2023-04-03T12:46:51;75192.34;;;-146.65;27.13
57094;BME280;42970;50.996;3.706;2023-04-03T12:49:26;75321.41;;;-146.65;27.39
57094;BME280;42970;50.996;3.706;2023-04-03T12:51:56;75371.84;;;-146.65;28.26
57094;BME280;42970;50.996;3.706;2023-04-03T12:57:08;75636.06;;;-146.65;30.20
57094;BME280;42970;50.996;3.706;2023-04-03T12:59:34;75773.25;;;-146.65;30.65
57094;BME280;42970;50.996;3.706;2023-04-03T13:02:00;75734.91;;;-146.65;30.51
57094;BME280;42970;50.996;3.706;2023-04-03T13:04:26;75718.78;;;-146.65;30.55
57094;BME280;42970;50.996;3.706;2023-04-03T13:06:52;75767.19;;;-146.65;30.20
57094;BME280;42970;50.996;3.706;2023-04-03T13:09:24;75773.25;;;-146.65;30.11
57094;BME280;42970;50.996;3.706;2023-04-03T13:11:52;75849.91;;;-146.65;31.60
57094;BME280;42970;50.996;3.706;2023-04-03T13:14:21;75726.84;;;-146.65;31.05
57094;BME280;42970;50.996;3.706;2023-04-03T13:16:53;75815.59;;;-146.65;30.76
57094;BME280;42970;50.996;3.706;2023-04-03T13:19:20;75823.66;;;-146.65;31.42
57094;BME280;42970;50.996;3.706;2023-04-03T13:21:55;75874.09;;;-146.65;30.90
57094;BME280;42970;50.996;3.706;2023-04-03T13:24:22;75797.44;;;-146.65;31.96
57094;BME280;42970;50.996;3.706;2023-04-03T13:26:48;75795.44;;;-146.65;30.50
57094;BME280;42970;50.996;3.706;2023-04-03T13:29:24;75823.66;;;-146.65;30.16
57094;BME280;42970;50.996;3.706;2023-04-03T13:31:52;75819.63;;;-146.65;29.52
57094;BME280;42970;50.996;3.706;2023-04-03T13:37:23;75787.38;;;-146.65;29.68
57094;BME280;42970;50.996;3.706;2023-04-03T13:42:25;75815.59;;;-146.65;30.15
57094;BME280;42970;50.996;3.706;2023-04-03T13:47:41;75795.44;;;-146.65;29.76
57094;BME280;42970;50.996;3.706;2023-04-03T13:58:16;75839.81;;;-146.65;29.18
57094;BME280;42970;50.996;3.706;2023-04-03T14:02:56;75803.50;;;-146.65;29.38
57094;BME280;42970;50.996;3.706;2023-04-03T14:05:22;75771.22;;;-146.65;28.31
57094;BME280;42970;50.996;3.706;2023-04-03T14:07:49;75736.94;;;-146.65;28.38
57094;BME280;42970;50.996;3.706;2023-04-03T14:10:14;75765.16;;;-146.65;27.49
57094;BME280;42970;50.996;3.706;2023-04-03T14:12:40;75793.41;;;-146.65;27.59
57094;BME280;42970;50.996;3.706;2023-04-03T14:15:27;75843.84;;;-146.65;27.86
57094;BME280;42970;50.996;3.706;2023-04-03T14:17:51;75815.59;;;-146.65;27.82
57094;BME280;42970;50.996;3.706;2023-04-03T14:20:17;75847.88;;;-146.65;27.92
57094;BME280;42970;50.996;3.706;2023-04-03T14:22:43;75831.75;;;-146.65;28.42
57094;BME280;42970;50.996;3.706;2023-04-03T14:25:09;75837.78;;;-146.65;27.93
57094;BME280;42970;50.996;3.706;2023-04-03T14:27:39;75847.88;;;-146.65;27.91